createdAt,value
2019-05-17T00:02:09.055Z,9.90
2019-05-17T00:04:40.011Z,9.90
2019-05-17T00:07:10.990Z,9.60
2019-05-17T00:09:43.186Z,9.70
2019-05-17T00:12:20.471Z,9.80
2019-05-17T00:14:50.629Z,9.80
2019-05-17T00:17:20.535Z,9.80
2019-05-17T00:19:54.061Z,9.80
2019-05-17T00:22:42.549Z,9.80
2019-05-17T00:25:27.222Z,9.80
2019-05-17T00:28:04.455Z,9.90
2019-05-17T00:30:37.287Z,9.90
2019-05-17T00:33:08.053Z,9.80
2019-05-17T00:35:41.491Z,9.80
2019-05-17T00:38:12.345Z,9.80
2019-05-17T00:40:42.300Z,9.90
2019-05-17T00:43:12.896Z,9.90
2019-05-17T00:45:46.686Z,9.90
2019-05-17T00:48:17.228Z,9.90
2019-05-17T00:50:53.130Z,9.90
2019-05-17T00:53:18.727Z,9.90
2019-05-17T00:55:48.967Z,9.80
2019-05-17T00:58:18.788Z,9.80
2019-05-17T01:00:49.271Z,9.80
2019-05-17T01:03:33.660Z,9.80
2019-05-17T01:06:06.146Z,9.80
2019-05-17T01:08:37.187Z,9.90
2019-05-17T01:11:13.381Z,9.80
2019-05-17T01:13:46.707Z,9.80
2019-05-17T01:16:17.052Z,9.80
2019-05-17T01:18:51.682Z,9.90
2019-05-17T01:21:21.957Z,9.90
2019-05-17T01:23:52.816Z,9.80
2019-05-17T01:26:23.100Z,9.80
2019-05-17T01:28:54.246Z,9.80
2019-05-17T01:31:26.614Z,9.70
2019-05-17T01:33:59.426Z,9.80
2019-05-17T01:36:32.805Z,9.80
2019-05-17T01:39:14.448Z,9.80
2019-05-17T01:41:37.246Z,9.80
2019-05-17T01:44:09.193Z,9.80
2019-05-17T01:46:40.275Z,9.80
2019-05-17T01:49:20.827Z,9.80
2019-05-17T01:51:50.882Z,9.80
2019-05-17T01:54:22.294Z,9.80
2019-05-17T01:56:52.660Z,9.80
2019-05-17T01:59:22.759Z,9.70
2019-05-17T02:01:56.538Z,9.70
2019-05-17T02:04:28.971Z,9.70
2019-05-17T02:06:59.107Z,9.80
2019-05-17T02:09:37.056Z,9.80
2019-05-17T02:12:00.891Z,9.90
2019-05-17T02:14:30.835Z,9.80
2019-05-17T02:17:03.139Z,9.80
2019-05-17T02:19:37.170Z,9.80
2019-05-17T02:22:11.918Z,9.70
2019-05-17T02:24:41.928Z,9.60
2019-05-17T02:27:12.336Z,9.60
2019-05-17T02:29:42.667Z,9.70
2019-05-17T02:32:13.853Z,9.70
2019-05-17T02:34:44.971Z,9.70
2019-05-17T02:37:14.699Z,9.80
2019-05-17T02:39:58.136Z,9.80
2019-05-17T02:42:15.973Z,9.90
2019-05-17T02:44:45.670Z,9.80
2019-05-17T02:47:15.454Z,9.80
2019-05-17T02:49:45.333Z,9.70
2019-05-17T02:52:15.037Z,9.70
2019-05-17T02:54:45.002Z,9.60
2019-05-17T02:57:15.366Z,9.70
2019-05-17T02:59:45.291Z,9.70
2019-05-17T03:02:15.480Z,9.80
2019-05-17T03:04:45.282Z,9.80
2019-05-17T03:07:15.054Z,9.80
2019-05-17T03:09:44.939Z,9.80
2019-05-17T03:12:14.815Z,9.80
2019-05-17T03:14:44.717Z,9.80
2019-05-17T03:17:14.892Z,9.80
2019-05-17T03:19:44.967Z,9.80
2019-05-17T03:22:14.860Z,9.90
2019-05-17T03:24:44.778Z,9.90
2019-05-17T03:27:17.862Z,10.00
2019-05-17T03:29:47.821Z,10.00
2019-05-17T03:32:18.253Z,9.90
2019-05-17T03:34:55.293Z,9.90
2019-05-17T03:37:26.392Z,9.90
2019-05-17T03:39:53.555Z,9.80
2019-05-17T03:42:23.596Z,9.90
2019-05-17T03:44:53.610Z,9.90
2019-05-17T03:47:23.735Z,10.00
2019-05-17T03:49:54.104Z,10.00
2019-05-17T03:52:24.339Z,10.00
2019-05-17T03:55:23.235Z,9.90
2019-05-17T03:57:32.110Z,9.90
2019-05-17T04:00:03.846Z,9.90
2019-05-17T04:02:32.899Z,9.90
2019-05-17T04:05:04.509Z,9.90
2019-05-17T04:07:34.587Z,9.90
2019-05-17T04:10:06.300Z,9.90
2019-05-17T04:12:35.995Z,9.90
2019-05-17T04:15:06.252Z,10.00
2019-05-17T04:17:36.220Z,10.00
2019-05-17T04:20:07.022Z,10.10
2019-05-17T04:22:37.005Z,10.20
2019-05-17T04:25:13.449Z,10.20
2019-05-17T04:27:43.547Z,10.20
2019-05-17T04:30:14.187Z,10.10
2019-05-17T04:32:44.670Z,10.10
2019-05-17T04:35:15.392Z,10.10
2019-05-17T04:37:45.268Z,10.10
2019-05-17T04:40:15.503Z,10.20
2019-05-17T04:42:45.466Z,10.10
2019-05-17T04:45:15.550Z,10.00
2019-05-17T04:47:45.522Z,10.00
2019-05-17T04:50:15.483Z,10.10
2019-05-17T04:52:45.672Z,10.10
2019-05-17T04:55:16.394Z,10.20
2019-05-17T04:57:46.229Z,10.30
2019-05-17T05:00:17.196Z,10.20
2019-05-17T05:02:47.051Z,10.20
2019-05-17T05:05:17.102Z,10.30
2019-05-17T05:07:47.191Z,10.30
2019-05-17T05:10:17.216Z,10.30
2019-05-17T05:12:47.125Z,10.40
2019-05-17T05:15:18.668Z,10.40
2019-05-17T05:17:52.708Z,10.50
2019-05-17T05:20:23.208Z,10.50
2019-05-17T05:22:54.662Z,10.50
2019-05-17T05:25:25.684Z,10.50
2019-05-17T05:27:55.645Z,10.20
2019-05-17T05:30:27.229Z,10.10
2019-05-17T05:32:57.087Z,10.00
2019-05-17T05:35:27.310Z,10.10
2019-05-17T05:37:57.636Z,10.00
2019-05-17T05:40:27.920Z,10.10
2019-05-17T05:42:58.866Z,10.10
2019-05-17T05:45:29.220Z,10.20
2019-05-17T05:47:59.078Z,10.30
2019-05-17T05:50:28.842Z,10.30
2019-05-17T05:52:59.050Z,10.20
2019-05-17T05:55:31.958Z,10.30
2019-05-17T05:58:03.411Z,10.40
2019-05-17T06:01:07.396Z,10.50
2019-05-17T06:06:45.988Z,10.40
2019-05-17T06:09:16.188Z,10.40
2019-05-17T06:11:46.619Z,10.50
2019-05-17T06:14:21.480Z,10.60
2019-05-17T06:16:52.005Z,10.70
2019-05-17T06:19:22.400Z,10.80
2019-05-17T06:21:52.568Z,10.60
2019-05-17T06:24:22.627Z,10.50
2019-05-17T06:27:03.001Z,10.60
2019-05-17T06:29:33.467Z,10.50
2019-05-17T06:32:03.480Z,10.40
2019-05-17T06:34:33.268Z,10.50
2019-05-17T06:37:03.402Z,10.50
2019-05-17T06:39:34.301Z,10.50
2019-05-17T06:42:07.664Z,10.60
2019-05-17T06:44:38.813Z,10.70
2019-05-17T06:47:11.718Z,10.70
2019-05-17T06:49:42.458Z,10.70
2019-05-17T06:52:12.779Z,10.80
2019-05-17T06:55:03.499Z,10.80
2019-05-17T06:57:33.063Z,10.80
2019-05-17T07:00:06.294Z,10.80
2019-05-17T07:02:36.126Z,10.80
2019-05-17T07:05:09.904Z,10.80
2019-05-17T07:07:40.745Z,11.00
2019-05-17T07:10:11.331Z,11.00
2019-05-17T07:12:55.053Z,11.00
2019-05-17T07:15:15.165Z,11.10
2019-05-17T07:17:47.599Z,11.00
2019-05-17T07:20:19.411Z,11.10
2019-05-17T07:22:51.754Z,11.20
2019-05-17T07:25:21.646Z,11.30
2019-05-17T07:27:52.647Z,11.10
2019-05-17T07:30:43.870Z,11.10
2019-05-17T07:33:30.342Z,11.00
2019-05-17T07:36:04.884Z,10.90
2019-05-17T07:38:34.724Z,10.90
2019-05-17T07:41:06.294Z,10.80
2019-05-17T07:43:40.296Z,10.90
2019-05-17T07:46:10.579Z,10.80
2019-05-17T07:48:40.829Z,10.90
2019-05-17T07:51:12.068Z,11.00
2019-05-17T07:53:42.081Z,11.00
2019-05-17T07:56:13.477Z,11.20
2019-05-17T07:58:44.823Z,11.30
2019-05-17T08:01:16.735Z,11.40
2019-05-17T08:03:50.114Z,11.40
2019-05-17T08:06:20.198Z,11.50
2019-05-17T08:08:54.734Z,11.40
2019-05-17T08:11:25.386Z,11.30
2019-05-17T08:13:55.755Z,11.30
2019-05-17T08:16:30.235Z,11.30
2019-05-17T08:19:01.991Z,11.40
2019-05-17T08:21:44.621Z,11.50
2019-05-17T08:24:15.115Z,11.40
2019-05-17T08:26:51.432Z,11.40
2019-05-17T08:29:29.573Z,11.40
2019-05-17T08:32:00.387Z,11.30
2019-05-17T08:34:31.076Z,11.30
2019-05-17T08:37:03.038Z,11.30
2019-05-17T08:39:32.801Z,11.50
2019-05-17T08:42:02.756Z,11.60
2019-05-17T08:44:34.160Z,11.80
2019-05-17T08:47:04.427Z,12.00
2019-05-17T08:49:34.866Z,12.00
2019-05-17T08:52:09.889Z,12.10
2019-05-17T08:54:42.650Z,12.00
2019-05-17T08:57:20.252Z,11.90
2019-05-17T08:59:52.077Z,11.90
2019-05-17T09:02:29.882Z,11.90
2019-05-17T09:05:00.725Z,11.90
2019-05-17T09:07:39.851Z,11.90
2019-05-17T09:10:16.153Z,11.80
2019-05-17T09:12:50.089Z,11.90
2019-05-17T09:15:24.737Z,11.90
2019-05-17T09:18:00.301Z,12.00
2019-05-17T09:20:35.874Z,12.00
2019-05-17T09:23:09.655Z,12.10
2019-05-17T09:25:42.558Z,12.30
2019-05-17T09:28:14.658Z,12.50
2019-05-17T09:30:44.592Z,12.70
2019-05-17T09:33:19.127Z,12.80
2019-05-17T09:35:49.962Z,12.90
2019-05-17T09:38:20.869Z,12.70
2019-05-17T09:40:59.926Z,12.30
2019-05-17T09:43:36.754Z,12.20
2019-05-17T09:46:10.733Z,12.30
2019-05-17T09:48:42.455Z,12.40
2019-05-17T09:51:14.338Z,12.40
2019-05-17T09:53:45.032Z,12.50
2019-05-17T09:56:15.034Z,12.40
2019-05-17T09:58:49.507Z,12.30
2019-05-17T10:02:05.954Z,12.30
2019-05-17T10:05:04.902Z,12.40
2019-05-17T10:07:35.475Z,12.40
2019-05-17T10:10:15.311Z,12.30
2019-05-17T10:12:46.526Z,12.10
2019-05-17T10:15:20.818Z,12.00
2019-05-17T10:18:02.105Z,12.20
2019-05-17T10:20:36.331Z,12.20
2019-05-17T10:23:14.335Z,12.20
2019-05-17T10:25:45.619Z,12.10
2019-05-17T10:28:21.166Z,12.10
2019-05-17T10:30:53.861Z,12.00
2019-05-17T10:33:26.510Z,12.00
2019-05-17T10:36:00.530Z,12.20
2019-05-17T10:38:31.230Z,12.20
2019-05-17T10:41:01.598Z,12.30
2019-05-17T10:43:34.358Z,12.40
2019-05-17T10:46:11.256Z,12.60
2019-05-17T10:48:43.117Z,12.70
2019-05-17T10:51:14.096Z,12.70
2019-05-17T10:53:46.235Z,12.60
2019-05-17T10:56:16.410Z,12.50
2019-05-17T10:58:49.847Z,12.60
2019-05-17T11:01:21.310Z,12.70
2019-05-17T11:04:07.522Z,13.00
2019-05-17T11:06:46.900Z,13.30
2019-05-17T11:09:41.874Z,13.60
2019-05-17T11:12:14.559Z,13.80
2019-05-17T11:14:56.087Z,14.00
2019-05-17T11:17:22.768Z,13.90
2019-05-17T11:19:55.619Z,13.80
2019-05-17T11:22:29.549Z,13.60
2019-05-17T11:25:03.483Z,13.60
2019-05-17T11:27:42.999Z,13.70
2019-05-17T11:30:20.178Z,13.70
2019-05-17T11:32:58.579Z,13.70
2019-05-17T11:35:28.781Z,13.70
2019-05-17T11:38:01.213Z,13.60
2019-05-17T11:40:31.429Z,13.70
2019-05-17T11:43:02.052Z,13.70
2019-05-17T11:45:32.914Z,13.80
2019-05-17T11:48:05.408Z,13.90
2019-05-17T11:50:35.488Z,14.10
2019-05-17T11:53:08.485Z,14.20
2019-05-17T11:55:39.132Z,14.40
2019-05-17T11:58:09.198Z,14.60
2019-05-17T12:00:39.322Z,14.60
2019-05-17T12:03:19.744Z,14.80
2019-05-17T12:05:49.847Z,14.80
2019-05-17T12:08:19.702Z,14.90
2019-05-17T12:10:52.274Z,15.00
2019-05-17T12:13:22.318Z,14.90
2019-05-17T12:15:52.354Z,14.90
2019-05-17T12:18:23.075Z,14.60
2019-05-17T12:20:53.622Z,14.70
2019-05-17T12:23:23.915Z,14.60
2019-05-17T12:25:53.975Z,14.60
2019-05-17T12:28:26.347Z,14.70
2019-05-17T12:31:05.453Z,14.90
2019-05-17T12:33:39.055Z,15.10
2019-05-17T12:36:14.949Z,15.20
2019-05-17T12:38:45.738Z,15.10
2019-05-17T12:41:17.606Z,15.00
2019-05-17T12:43:52.948Z,15.10
2019-05-17T12:46:23.026Z,15.30
2019-05-17T12:48:53.695Z,15.50
2019-05-17T12:51:32.878Z,15.50
2019-05-17T12:54:05.891Z,15.30
2019-05-17T12:56:38.517Z,15.40
2019-05-17T12:59:11.996Z,15.20
2019-05-17T13:01:43.883Z,15.20
2019-05-17T13:04:16.199Z,15.30
2019-05-17T13:06:46.528Z,15.50
2019-05-17T13:09:18.199Z,15.60
2019-05-17T13:11:50.674Z,15.90
2019-05-17T13:14:33.565Z,16.20
2019-05-17T13:17:04.995Z,16.80
2019-05-17T13:19:49.154Z,17.20
2019-05-17T13:22:22.567Z,17.70
2019-05-17T13:24:55.936Z,17.60
2019-05-17T13:27:25.939Z,17.40
2019-05-17T13:30:10.052Z,17.10
2019-05-17T13:32:53.212Z,16.80
2019-05-17T13:35:25.036Z,16.60
2019-05-17T13:37:55.686Z,16.80
2019-05-17T13:40:39.393Z,17.10
2019-05-17T13:43:03.960Z,17.30
2019-05-17T13:45:35.752Z,17.30
2019-05-17T13:48:11.870Z,17.30
2019-05-17T13:50:52.119Z,17.50
2019-05-17T13:53:25.589Z,17.60
2019-05-17T13:55:55.636Z,17.90
2019-05-17T13:58:31.465Z,17.80
2019-05-17T14:01:05.219Z,17.70
2019-05-17T14:03:35.415Z,17.60
2019-05-17T14:06:08.707Z,17.60
2019-05-17T14:08:41.790Z,17.70
2019-05-17T14:11:17.031Z,17.90
2019-05-17T14:13:53.890Z,17.90
2019-05-17T14:16:42.585Z,18.00
2019-05-17T14:19:15.925Z,18.10
2019-05-17T14:22:08.900Z,18.00
2019-05-17T14:24:43.386Z,18.10
2019-05-17T14:27:14.392Z,18.30
2019-05-17T14:29:49.316Z,18.20
2019-05-17T14:32:19.397Z,18.20
2019-05-17T14:34:51.903Z,18.40
2019-05-17T14:37:24.886Z,18.50
2019-05-17T14:39:55.987Z,18.50
2019-05-17T14:42:26.588Z,18.50
2019-05-17T14:45:14.830Z,18.40
2019-05-17T14:47:45.436Z,18.50
2019-05-17T14:50:27.571Z,18.60
2019-05-17T14:53:03.863Z,18.70
2019-05-17T14:55:41.532Z,18.60
2019-05-17T14:58:19.600Z,18.70
2019-05-17T15:00:56.329Z,18.70
2019-05-17T15:03:35.771Z,18.70
2019-05-17T15:06:22.384Z,18.70
2019-05-17T15:09:00.298Z,18.70
2019-05-17T15:11:48.984Z,18.80
2019-05-17T15:17:49.613Z,19.00
2019-05-17T15:20:23.925Z,19.10
2019-05-17T15:23:05.475Z,19.10
2019-05-17T15:25:41.617Z,19.00
2019-05-17T15:28:12.395Z,18.80
2019-05-17T15:30:43.229Z,18.90
2019-05-17T15:33:16.353Z,19.00
2019-05-17T15:35:51.567Z,19.10
2019-05-17T15:38:56.261Z,19.20
2019-05-17T15:41:32.569Z,19.20
2019-05-17T15:44:06.755Z,18.90
2019-05-17T15:46:41.989Z,18.70
2019-05-17T15:49:12.854Z,18.60
2019-05-17T15:51:44.841Z,18.50
2019-05-17T15:54:15.187Z,18.60
2019-05-17T15:56:45.991Z,18.70
2019-05-17T15:59:20.973Z,18.60
2019-05-17T16:01:57.237Z,18.60
2019-05-17T16:04:30.565Z,18.60
2019-05-17T16:07:03.461Z,18.60
2019-05-17T16:09:37.682Z,18.40
2019-05-17T16:12:28.344Z,18.20
2019-05-17T16:15:47.661Z,18.00
2019-05-17T16:18:49.628Z,18.00
2019-05-17T16:21:20.714Z,17.90
2019-05-17T16:23:51.496Z,17.70
2019-05-17T16:26:25.824Z,17.60
2019-05-17T16:28:58.160Z,17.50
2019-05-17T16:31:33.988Z,17.50
2019-05-17T16:34:06.875Z,17.40
2019-05-17T16:36:39.295Z,17.40
2019-05-17T16:39:16.996Z,17.40
2019-05-17T16:41:47.453Z,17.40
2019-05-17T16:44:24.340Z,17.60
2019-05-17T16:47:10.700Z,17.70
2019-05-17T16:49:45.846Z,17.90
2019-05-17T16:52:20.138Z,17.80
2019-05-17T16:54:50.780Z,17.60
2019-05-17T16:57:22.296Z,17.50
2019-05-17T16:59:57.904Z,17.50
2019-05-17T17:02:30.267Z,17.50
2019-05-17T17:05:01.688Z,17.50
2019-05-17T17:07:42.424Z,17.50
2019-05-17T17:10:15.117Z,17.50
2019-05-17T17:12:46.438Z,17.50
2019-05-17T17:15:17.568Z,17.50
2019-05-17T17:17:48.795Z,17.50
2019-05-17T17:20:22.192Z,17.50
2019-05-17T17:23:33.862Z,17.40
2019-05-17T17:26:10.321Z,17.30
2019-05-17T17:28:47.025Z,17.30
2019-05-17T17:31:22.260Z,17.20
2019-05-17T17:34:10.807Z,17.20
2019-05-17T17:36:45.566Z,17.20
2019-05-17T17:39:31.979Z,17.30
2019-05-17T17:42:30.665Z,17.30
2019-05-17T17:45:04.390Z,17.30
2019-05-17T17:47:36.357Z,17.40
2019-05-17T17:50:08.760Z,17.50
2019-05-17T17:52:42.280Z,17.50
2019-05-17T17:55:21.029Z,17.50
2019-05-17T17:57:52.004Z,17.50
2019-05-17T18:00:45.919Z,17.50
2019-05-17T18:03:16.644Z,17.40
2019-05-17T18:05:49.826Z,17.40
2019-05-17T18:08:21.120Z,17.40
2019-05-17T18:10:52.183Z,17.40
2019-05-17T18:13:28.909Z,17.40
2019-05-17T18:16:05.974Z,17.40
2019-05-17T18:18:39.929Z,17.50
2019-05-17T18:21:17.357Z,17.50
2019-05-17T18:23:54.920Z,17.40
2019-05-17T18:26:39.920Z,17.40
2019-05-17T18:29:14.979Z,17.40
2019-05-17T18:31:54.801Z,17.30
2019-05-17T18:35:07.210Z,17.30
2019-05-17T18:38:28.204Z,17.20
2019-05-17T18:41:01.877Z,17.20
2019-05-17T18:43:35.199Z,17.20
2019-05-17T18:46:09.807Z,17.20
2019-05-17T18:48:51.716Z,17.20
2019-05-17T18:51:29.379Z,17.20
2019-05-17T18:54:03.206Z,17.20
2019-05-17T18:56:34.943Z,17.20
2019-05-17T18:59:16.450Z,17.20
2019-05-17T19:01:49.540Z,17.20
2019-05-17T19:04:25.673Z,17.20
2019-05-17T19:06:57.009Z,17.20
2019-05-17T19:09:34.340Z,17.20
2019-05-17T19:12:06.066Z,17.20
2019-05-17T19:14:46.868Z,17.00
2019-05-17T19:17:36.092Z,17.00
2019-05-17T19:20:26.531Z,16.90
2019-05-17T19:22:56.355Z,17.00
2019-05-17T19:25:28.845Z,17.00
2019-05-17T19:28:02.622Z,17.00
2019-05-17T19:30:33.146Z,17.00
2019-05-17T19:33:06.968Z,17.00
2019-05-17T19:35:41.501Z,17.00
2019-05-17T19:38:20.102Z,17.00
2019-05-17T19:40:51.421Z,17.00
2019-05-17T19:43:31.344Z,17.00
2019-05-17T19:46:42.799Z,17.00
2019-05-17T19:49:40.352Z,17.00
2019-05-17T19:52:33.868Z,17.10
2019-05-17T19:55:25.160Z,17.20
2019-05-17T19:57:57.358Z,17.20
2019-05-17T20:00:48.363Z,17.20
2019-05-17T20:03:25.987Z,17.20
2019-05-17T20:06:02.941Z,17.10
2019-05-17T20:08:38.915Z,17.00
2019-05-17T20:11:33.966Z,17.00
2019-05-17T20:14:19.079Z,16.90
2019-05-17T20:17:24.527Z,16.90
2019-05-17T20:20:13.252Z,16.80
2019-05-17T20:22:47.878Z,16.80
2019-05-17T20:25:25.189Z,16.70
2019-05-17T20:28:05.628Z,16.70
2019-05-17T20:30:37.719Z,16.60
2019-05-17T20:33:33.647Z,16.60
2019-05-17T20:36:42.694Z,16.60
2019-05-17T20:39:17.718Z,16.60
2019-05-17T20:42:05.050Z,16.60
2019-05-17T20:44:39.773Z,16.50
2019-05-17T20:47:33.136Z,16.40
2019-05-17T20:50:15.008Z,16.40
2019-05-17T20:52:52.251Z,16.40
2019-05-17T20:55:47.165Z,16.40
2019-05-17T20:58:19.724Z,16.30
2019-05-17T21:00:50.592Z,16.10
2019-05-17T21:03:31.047Z,16.10
2019-05-17T21:06:01.780Z,16.10
2019-05-17T21:08:45.726Z,16.00
2019-05-17T21:11:07.361Z,16.10
2019-05-17T21:13:42.283Z,16.10
2019-05-17T21:16:14.147Z,16.10
2019-05-17T21:18:54.905Z,16.10
2019-05-17T21:21:27.012Z,16.10
2019-05-17T21:24:03.097Z,16.10
2019-05-17T21:26:42.656Z,16.00
2019-05-17T21:29:32.971Z,16.00
2019-05-17T21:32:13.467Z,16.00
2019-05-17T21:34:45.160Z,15.90
2019-05-17T21:37:17.955Z,15.80
2019-05-17T21:39:50.835Z,15.80
2019-05-17T21:42:24.710Z,15.70
2019-05-17T21:45:09.629Z,15.60
2019-05-17T21:48:05.829Z,15.60
2019-05-17T21:50:51.289Z,15.50
2019-05-17T21:53:43.930Z,15.40
2019-05-17T21:56:30.130Z,15.40
2019-05-17T21:59:02.297Z,15.40
2019-05-17T22:01:40.012Z,15.30
2019-05-17T22:04:19.330Z,15.30
2019-05-17T22:06:55.819Z,15.30
2019-05-17T22:09:46.346Z,15.30
2019-05-17T22:12:23.725Z,15.30
2019-05-17T22:14:58.920Z,15.20
2019-05-17T22:17:37.024Z,15.10
2019-05-17T22:20:18.494Z,15.00
2019-05-17T22:22:49.820Z,14.90
2019-05-17T22:25:23.232Z,14.80
2019-05-17T22:27:58.301Z,14.70
2019-05-17T22:30:28.731Z,14.70
2019-05-17T22:33:00.471Z,14.60
2019-05-17T22:35:36.041Z,14.50
2019-05-17T22:38:12.584Z,14.50
2019-05-17T22:40:49.872Z,14.40
2019-05-17T22:43:30.588Z,14.40
2019-05-17T22:46:07.927Z,14.40
2019-05-17T22:48:42.579Z,14.30
2019-05-17T22:51:13.178Z,14.40
2019-05-17T22:53:43.523Z,14.30
2019-05-17T22:56:13.868Z,14.30
2019-05-17T22:58:44.850Z,14.30
2019-05-17T23:01:25.160Z,14.30
2019-05-17T23:04:24.037Z,14.30
2019-05-17T23:06:55.211Z,14.20
2019-05-17T23:09:28.761Z,14.10
2019-05-17T23:12:00.165Z,14.10
2019-05-17T23:14:32.652Z,14.10
2019-05-17T23:17:07.674Z,14.10
2019-05-17T23:19:51.961Z,14.10
2019-05-17T23:22:28.970Z,14.10
2019-05-17T23:25:08.386Z,14.20
2019-05-17T23:27:40.502Z,14.20
2019-05-17T23:30:20.324Z,14.20
2019-05-17T23:32:51.360Z,14.20
2019-05-17T23:35:37.616Z,14.10
2019-05-17T23:38:10.732Z,14.10
2019-05-17T23:40:46.975Z,14.10
2019-05-17T23:43:25.233Z,14.10
2019-05-17T23:46:10.691Z,14.00
2019-05-17T23:48:51.703Z,14.00
2019-05-17T23:51:22.972Z,13.90
2019-05-17T23:53:56.879Z,13.90
2019-05-17T23:56:27.428Z,13.90
2019-05-17T23:58:58.577Z,13.90
